Tuesday, September 30, 2014
11:55 UTC
  |  Log In   |  Register Free
Airport Search:

Fort Smith Regional Airport
(KFSM)

FAA data valid effective September 18, 2014 - November 13, 2014 (unless otherwise noted).

 
 
 
 
 
 
 
 
 
 
 
 
 
 

Current Aviation Weather for Fort Smith Regional Airport (KFSM)

The most recent METAR observation for KFSM was updated at: 1115
METAR Summary (Translated METAR)
KFSM
301053Z 07003KT 9SM CLR 17/16 A2994 RMK AO2 SLP133 T01720156
KJSV
301055Z AUTO 06003KT 10SM CLR 16/15 A2994 RMK AO2
(22.2 nm NW from KFSM)
KRKR
301055Z AUTO 00000KT 7SM CLR 15/14 A2994 RMK AO2 T01450138
(22.6 nm SW from KFSM)
TAF
No TAF information found within 50 nm of KFSM
  Airport Weather Conditions for KFSM

 Current Weather at FSM
63° F
Fair
East winds at 3.5 mph
FSM NOAA Radar

Pressure: 29.94 in
Humidity: 90%
Wind: East at 3.5 MPH (3 KT)
Dew Point: 60.1°F
Visibility: 9.00 mi


Airport Weather Forecast for KFSM

Translated METAR and TAF for KFSM
Translated METAR for KFSM (1149 UTC 30 September 2014)
found at http://aviationweather.gov/adds/metars/
 
METAR text: KFSM 301053Z 07003KT 9SM CLR 17/16 A2994 RMK AO2 SLP133 T01720156
Conditions at: KFSM (FORT SMITH , AR, US) observed 1053 UTC 30 September 2014
Temperature: 17.2°C (63°F)
Dewpoint: 15.6°C (60°F) [RH = 90%]
Pressure (altimeter): 29.94 inches Hg (1014.0 mb)
[Sea-level pressure: 1013.3 mb]
Winds: from the ENE (70 degrees) at 3 MPH (3 knots; 1.6 m/s)
Visibility: 9 miles (14 km)
Ceiling: at least 12,000 feet AGL
Clouds: sky clear below 12,000 feet AGL
Weather: no significant weather observed at this time
Translated TAF for KFSM
Forecast for: KFSM (FORT SMITH , AR, US)
TAF Text: KFSM 301120Z 3012/0112 08003KT P6SM FEW250
Forecast period: 1200 to 1700 UTC 30 September 2014
Forecast type: FROM: standard forecast or significant change
Winds: from the E (80 degrees) at 3 MPH (3 knots; 1.6 m/s)
Visibility: 6 or more miles (10+ km)
Clouds: few clouds at 25000 feet AGL
Weather: no significant weather forecast for this period
TAF Text: FM301700 14007KT P6SM SCT060
Forecast period: 1700 UTC 30 September 2014 to 0000 UTC 01 October 2014
Forecast type: FROM: standard forecast or significant change
Winds: from the SE (140 degrees) at 8 MPH (7 knots; 3.6 m/s)
Visibility: 6 or more miles (10+ km)
Clouds: scattered clouds at 6000 feet AGL
Weather: no significant weather forecast for this period
TAF Text: FM010000 09005KT P6SM SCT250
Forecast period: 0000 to 1200 UTC 01 October 2014
Forecast type: FROM: standard forecast or significant change
Winds: from the E (90 degrees) at 6 MPH (5 knots; 2.6 m/s)
Visibility: 6 or more miles (10+ km)
Clouds: scattered clouds at 25000 feet AGL
Weather: no significant weather forecast for this period

Find All Airport Services Find A Hotel Find A Rental Car Find A Golf Course Find A Restaurant $100 Hamburger



FBO's on the Field
FBO Company Facility Photos Services Transportation Aviation Fuel Prices: Prices include tax
Catering Weather Repair Courtesy Rental Type 100LL JetA JetA+ MOGAS 8087
 
TAC Air - FSM

This FBO has not yet been rated
FS:Independent
Last Updated: Sep-18
Login to update fuel prices
SS:
Contact TAC Air - FSMMore FBO Information
 
Add another FBO Facility Photos Catering Weather Repair Courtesy Rental Type 100LL JetA JetA+ MOGAS 8087
Services Transportation Aviation Fuel Prices: Prices include tax


model-print
model-print
model-print
model-print